Mc Neill, Mississippi
Current Conditions -  °F | °C
As of 12:50 PM on Saturday 25 Oct 2014 (Local Time) from KHSA Reporting Station
Clear Clear  
Wind Chill: 77°   Ceiling: Unl
Heat Index: 78°   Visibility: 10mi
Dew Point: 48°   Wind: 6mph
Humidity: 36%   Direction: 10°N
Pressure: 30.12"   Gusts: NA
Location:  30.6637°N, 89.6342°W
Report Text: KHSA 251750Z 01005KT 10SM CLR 25/09 A3012
Loading
Personal Weather Stations






























Interactive Weather Map
Tropical Storm Tracking
New forecast layout! Learn more

10-Day Weather Forecast

Advertisements
Track Severe Weather on mobile